Time;durP1;ratioP1;P1;durP2;ratioP2;P2;SDS_P1;SDS_P2;PMS_P1;PMS_P2;Temp;Humidity;BMP_temperature;BMP_pressure;BME280_temperature;BME280_humidity;BME280_pressure;Samples;Min_cycle;Max_cycle;Signal;HPM_P1;HPM_P2
2022/01/27 00:06:19;;;;;;;35.20;21.97;;;1.40;75.60;;;;;;6226853;28;20211;-55
2022/01/27 00:09:30;;;;;;;36.57;22.43;;;1.30;75.80;;;;;;6212147;28;20195;-56
2022/01/27 00:12:30;;;;;;;37.17;21.83;;;1.30;76.30;;;;;;6236227;28;20198;-55
2022/01/27 00:15:33;;;;;;;36.33;22.50;;;1.30;75.90;;;;;;6211350;28;20197;-57
2022/01/27 00:18:34;;;;;;;35.93;22.47;;;1.30;76.10;;;;;;6235216;28;20329;-55
2022/01/27 00:21:35;;;;;;;40.80;24.80;;;1.20;76.40;;;;;;6248830;28;20190;-53
2022/01/27 00:24:36;;;;;;;38.93;23.53;;;1.30;76.40;;;;;;6231800;28;20205;-54
2022/01/27 00:27:37;;;;;;;34.80;21.90;;;1.30;76.30;;;;;;6234191;28;20185;-54
2022/01/27 00:30:39;;;;;;;39.90;23.67;;;1.20;76.50;;;;;;6232913;28;20264;-56
2022/01/27 00:33:40;;;;;;;41.47;22.43;;;1.20;76.50;;;;;;6234300;28;20313;-55
2022/01/27 00:36:41;;;;;;;40.73;24.47;;;1.10;76.50;;;;;;6236130;28;20289;-54
2022/01/27 00:39:42;;;;;;;37.80;23.20;;;1.10;76.60;;;;;;6213446;28;20244;-55
2022/01/27 00:42:43;;;;;;;38.73;24.17;;;0.90;77.10;;;;;;6223246;28;20233;-54
2022/01/27 00:45:44;;;;;;;42.83;25.20;;;1.00;77.10;;;;;;6234894;28;20198;-53
2022/01/27 00:48:46;;;;;;;43.20;25.37;;;0.90;77.00;;;;;;6233923;28;20178;-53
2022/01/27 00:51:47;;;;;;;45.00;24.30;;;0.80;77.60;;;;;;6250370;28;20198;-56
2022/01/27 00:54:50;;;;;;;35.23;22.17;;;0.80;77.50;;;;;;6234443;28;20190;-54
2022/01/27 01:00:59;;;;;;;39.63;23.90;;;0.70;78.00;;;;;;6241726;28;20189;-55
2022/01/27 01:04:04;;;;;;;45.23;26.67;;;0.80;78.00;;;;;;6242167;28;20250;-55
2022/01/27 01:07:06;;;;;;;42.93;25.47;;;0.70;78.20;;;;;;6274887;28;20190;-51
2022/01/27 01:29:54;;;;;;;38.80;22.73;;;0.80;78.00;;;;;;6244239;28;20244;-51
2022/01/27 01:32:57;;;;;;;39.20;22.40;;;0.80;77.70;;;;;;6275020;28;20194;-55
2022/01/27 01:36:12;;;;;;;36.03;21.63;;;0.60;77.80;;;;;;6239986;28;20261;-54
2022/01/27 01:39:12;;;;;;;38.07;23.60;;;0.70;78.00;;;;;;6250667;28;20265;-49
2022/01/27 01:42:13;;;;;;;40.40;23.40;;;0.60;78.00;;;;;;6248037;28;20218;-52
2022/01/27 01:45:17;;;;;;;39.30;22.80;;;0.50;78.20;;;;;;6268289;28;20236;-52
2022/01/27 01:48:18;;;;;;;43.93;23.60;;;0.50;78.30;;;;;;6268850;28;20186;-52
2022/01/27 01:51:29;;;;;;;38.27;22.07;;;0.50;78.20;;;;;;6240488;28;20201;-59
2022/01/27 01:54:30;;;;;;;40.33;22.77;;;0.40;78.40;;;;;;6257149;28;20195;-59
2022/01/27 01:57:30;;;;;;;39.47;22.23;;;0.30;78.70;;;;;;6240341;28;20202;-60
2022/01/27 02:00:31;;;;;;;43.40;23.73;;;0.30;79.00;;;;;;6240719;28;20206;-60
2022/01/27 02:03:32;;;;;;;36.20;22.43;;;0.30;79.20;;;;;;6274337;28;20209;-60
2022/01/27 02:06:40;;;;;;;35.33;22.07;;;0.30;79.10;;;;;;6267120;28;20213;-60
2022/01/27 02:10:02;;;;;;;35.23;21.40;;;0.30;78.60;;;;;;6236060;28;20194;-60
2022/01/27 02:19:42;;;;;;;37.43;22.40;;;0.30;79.10;;;;;;6264674;28;20198;-60
2022/01/27 02:22:43;;;;;;;44.77;24.20;;;0.30;78.90;;;;;;6242717;28;20237;-61
2022/01/27 02:25:44;;;;;;;37.13;21.50;;;0.30;78.90;;;;;;6255576;28;20198;-54
2022/01/27 02:28:45;;;;;;;43.10;23.10;;;0.30;79.20;;;;;;6255572;28;20178;-54
2022/01/27 02:31:48;;;;;;;36.00;22.70;;;0.30;79.30;;;;;;6221903;28;20439;-53
2022/01/27 02:34:49;;;;;;;36.27;21.17;;;0.30;79.10;;;;;;6254986;28;20197;-55
2022/01/27 02:37:50;;;;;;;34.67;20.57;;;0.30;79.30;;;;;;6255342;28;20185;-56
2022/01/27 02:40:57;;;;;;;37.43;21.00;;;0.30;79.10;;;;;;6255276;28;20203;-52
2022/01/27 02:43:58;;;;;;;37.67;21.57;;;0.20;79.20;;;;;;6266074;28;20265;-52
2022/01/27 02:46:59;;;;;;;41.40;22.37;;;0.30;79.10;;;;;;6239296;28;20210;-59
2022/01/27 02:50:00;;;;;;;40.37;22.03;;;0.30;79.20;;;;;;6232220;28;20221;-59
2022/01/27 02:53:01;;;;;;;37.77;21.57;;;0.30;79.10;;;;;;6240372;28;20217;-58
2022/01/27 02:56:02;;;;;;;42.40;23.20;;;0.30;79.00;;;;;;6260816;28;20239;-59
2022/01/27 02:59:03;;;;;;;37.20;21.97;;;0.20;79.10;;;;;;6261169;28;20201;-58
2022/01/27 03:02:04;;;;;;;41.33;22.53;;;0.30;78.90;;;;;;6228246;28;20315;-59
2022/01/27 03:05:05;;;;;;;36.37;21.50;;;0.20;79.00;;;;;;6245038;28;20190;-59
2022/01/27 03:08:06;;;;;;;35.50;21.27;;;0.10;79.10;;;;;;6244255;28;20202;-59
2022/01/27 03:11:16;;;;;;;32.33;20.53;;;0.10;79.40;;;;;;6243627;28;20201;-59
2022/01/27 03:14:20;;;;;;;38.20;22.13;;;0.00;79.40;;;;;;6259357;28;20235;-59
2022/01/27 03:17:21;;;;;;;44.53;23.83;;;0.00;79.40;;;;;;6236007;28;20297;-59
2022/01/27 03:20:23;;;;;;;39.73;22.50;;;0.00;79.60;;;;;;6239603;28;20194;-59
2022/01/27 03:23:24;;;;;;;39.47;21.47;;;0.00;79.60;;;;;;6244227;28;20217;-59
2022/01/27 03:26:26;;;;;;;34.93;20.93;;;0.00;79.70;;;;;;6258323;28;20202;-59
2022/01/27 03:29:27;;;;;;;33.23;21.27;;;-3276.70;79.70;;;;;;6262759;28;20319;-59
2022/01/27 03:32:28;;;;;;;33.90;20.47;;;-3276.70;79.60;;;;;;6235520;28;20191;-59
2022/01/27 03:35:29;;;;;;;36.50;20.70;;;-3276.70;79.70;;;;;;6219490;28;20275;-59
2022/01/27 03:38:29;;;;;;;39.30;21.73;;;-3276.60;80.00;;;;;;6269222;28;20201;-52
2022/01/27 03:41:35;;;;;;;39.67;21.83;;;-3276.50;80.20;;;;;;6255432;28;20288;-54
2022/01/27 03:44:36;;;;;;;41.93;21.77;;;-3276.50;80.20;;;;;;6276699;28;20247;-54
2022/01/27 03:47:37;;;;;;;41.43;23.70;;;-3276.30;80.50;;;;;;6265334;28;20190;-52
2022/01/27 03:50:38;;;;;;;38.63;21.87;;;-3276.30;81.10;;;;;;6257231;28;20231;-56
2022/01/27 03:53:39;;;;;;;39.47;22.03;;;-3276.20;81.00;;;;;;6243559;28;20196;-55
2022/01/27 03:56:40;;;;;;;35.63;20.87;;;-3276.20;81.00;;;;;;6247086;28;20194;-55
2022/01/27 03:59:41;;;;;;;41.27;22.53;;;-3276.20;81.10;;;;;;6243281;28;20344;-54
2022/01/27 04:02:54;;;;;;;37.97;21.40;;;-3276.10;81.30;;;;;;6228773;28;20222;-57
2022/01/27 04:06:03;;;;;;;37.67;21.93;;;-3276.00;81.30;;;;;;6239138;28;20233;-59
2022/01/27 04:09:06;;;;;;;42.13;22.97;;;-3276.10;81.20;;;;;;6244321;28;20195;-58
2022/01/27 04:12:07;;;;;;;40.53;22.70;;;-3276.00;81.10;;;;;;6262643;28;20291;-58
2022/01/27 04:15:08;;;;;;;35.40;21.33;;;-3276.00;80.90;;;;;;6253693;28;20209;-58
2022/01/27 04:18:10;;;;;;;41.03;22.90;;;-3276.00;81.00;;;;;;6244125;28;20189;-57
2022/01/27 04:21:11;;;;;;;36.70;22.13;;;-3276.00;81.40;;;;;;6242986;28;20181;-57
2022/01/27 04:24:15;;;;;;;34.70;20.27;;;-3276.10;81.10;;;;;;6223359;28;20271;-58
2022/01/27 04:27:21;;;;;;;40.37;21.80;;;-3276.00;81.30;;;;;;6232138;28;20198;-56
2022/01/27 04:30:24;;;;;;;39.87;22.03;;;-3275.90;81.30;;;;;;6259647;28;20191;-57
2022/01/27 04:33:28;;;;;;;38.27;22.57;;;-3275.90;81.40;;;;;;6240242;28;20245;-58
2022/01/27 04:36:31;;;;;;;38.60;21.90;;;-3275.70;81.70;;;;;;6242117;28;20190;-56
2022/01/27 04:40:16;;;;;;;49.47;27.93;;;-3275.80;81.70;;;;;;6230731;28;20200;-58
2022/01/27 04:43:17;;;;;;;43.03;24.07;;;-3275.80;81.60;;;;;;6240631;28;20229;-58
2022/01/27 04:46:29;;;;;;;49.17;25.93;;;-3275.80;81.80;;;;;;6236225;28;20273;-58
2022/01/27 04:49:30;;;;;;;53.50;29.57;;;-3275.70;81.90;;;;;;6234980;28;20220;-58
2022/01/27 04:52:35;;;;;;;42.67;25.77;;;-3275.70;81.90;;;;;;6227644;28;20209;-57
2022/01/27 04:55:36;;;;;;;44.27;24.47;;;-3275.70;81.90;;;;;;6240909;28;20198;-57
2022/01/27 04:58:37;;;;;;;40.27;22.80;;;-3275.70;81.80;;;;;;6267330;28;20223;-59
2022/01/27 05:01:43;;;;;;;40.10;22.67;;;-3275.70;82.20;;;;;;6264099;28;20209;-58
2022/01/27 05:04:48;;;;;;;40.30;23.57;;;-3275.70;82.00;;;;;;6246165;28;20207;-56
2022/01/27 05:07:56;;;;;;;46.33;24.70;;;-3275.70;82.00;;;;;;6256398;28;20191;-58
2022/01/27 05:11:02;;;;;;;42.57;23.83;;;-3275.60;82.10;;;;;;6267853;28;20214;-58
2022/01/27 05:14:13;;;;;;;40.77;24.30;;;-3275.60;82.30;;;;;;6253315;28;20200;-58
2022/01/27 05:17:17;;;;;;;43.67;23.47;;;-3275.50;82.40;;;;;;6226535;28;20194;-57
2022/01/27 05:20:17;;;;;;;41.90;22.30;;;-3275.60;82.00;;;;;;6239606;28;20293;-60
2022/01/27 05:23:18;;;;;;;43.47;23.90;;;-3275.50;82.20;;;;;;6228596;28;20233;-59
2022/01/27 05:26:19;;;;;;;34.00;21.50;;;-3275.60;81.90;;;;;;6242523;28;20223;-59
2022/01/27 05:29:20;;;;;;;46.70;23.30;;;-3275.60;82.10;;;;;;6266241;28;20190;-59
2022/01/27 05:32:21;;;;;;;40.50;21.83;;;-3275.60;82.10;;;;;;6259587;28;20250;-59
2022/01/27 05:35:21;;;;;;;37.10;21.33;;;-3275.50;82.30;;;;;;6263115;28;20207;-58
2022/01/27 05:38:22;;;;;;;40.77;23.30;;;-3275.50;82.10;;;;;;6227380;28;20200;-58
2022/01/27 05:41:23;;;;;;;37.80;21.20;;;-3275.50;82.00;;;;;;6273769;28;20206;-58
2022/01/27 05:44:24;;;;;;;43.53;23.20;;;-3275.50;82.20;;;;;;6240687;28;20239;-59
2022/01/27 05:47:25;;;;;;;38.13;21.93;;;-3275.50;82.00;;;;;;6215749;28;20197;-59
2022/01/27 05:50:26;;;;;;;35.93;21.13;;;-3275.50;82.10;;;;;;6254902;28;20209;-58
2022/01/27 05:53:30;;;;;;;38.93;21.20;;;-3275.40;82.10;;;;;;6256106;28;20200;-59
2022/01/27 05:56:31;;;;;;;37.50;20.97;;;-3275.40;82.30;;;;;;6248006;28;20230;-58
2022/01/27 05:59:31;;;;;;;42.17;24.10;;;-3275.40;82.50;;;;;;6240842;28;20205;-58
2022/01/27 06:02:32;;;;;;;44.80;22.27;;;-3275.40;82.80;;;;;;6242541;28;20218;-58
2022/01/27 06:05:33;;;;;;;46.60;22.63;;;-3275.30;82.80;;;;;;6232242;28;20200;-59
2022/01/27 06:08:34;;;;;;;45.47;24.30;;;-3275.30;82.80;;;;;;6243344;28;20202;-59
2022/01/27 06:11:35;;;;;;;39.93;21.77;;;-3275.30;82.80;;;;;;6239523;28;20188;-59
2022/01/27 06:14:36;;;;;;;39.33;22.33;;;-3275.30;82.80;;;;;;6223571;28;20210;-59
2022/01/27 06:17:36;;;;;;;49.67;24.73;;;-3275.30;82.50;;;;;;6231320;28;20222;-61
2022/01/27 06:20:39;;;;;;;41.50;22.83;;;-3275.30;82.60;;;;;;6225669;28;20277;-58
2022/01/27 06:23:40;;;;;;;38.47;22.37;;;-3275.30;82.80;;;;;;6228818;28;20268;-58
2022/01/27 06:26:40;;;;;;;40.80;21.53;;;-3275.30;82.80;;;;;;6201304;28;20191;-59
2022/01/27 06:29:41;;;;;;;37.87;21.87;;;-3275.30;82.60;;;;;;6250877;28;20203;-59
2022/01/27 06:32:42;;;;;;;37.23;22.70;;;-3275.40;82.20;;;;;;6266312;28;20203;-57
2022/01/27 06:35:43;;;;;;;39.40;22.00;;;-3275.30;82.60;;;;;;6238431;28;20234;-59
2022/01/27 06:38:44;;;;;;;40.83;22.93;;;-3275.30;82.50;;;;;;6245733;28;20192;-59
2022/01/27 06:41:45;;;;;;;37.30;22.50;;;-3275.30;82.40;;;;;;6244231;28;20284;-58
2022/01/27 06:44:46;;;;;;;42.07;22.77;;;-3275.30;82.30;;;;;;6252141;28;20243;-59
2022/01/27 06:47:47;;;;;;;41.87;23.77;;;-3275.20;82.50;;;;;;6241161;28;20195;-58
2022/01/27 06:50:53;;;;;;;42.90;22.77;;;-3275.30;82.60;;;;;;6259119;28;20256;-59
2022/01/27 06:53:54;;;;;;;45.53;24.00;;;-3275.20;82.70;;;;;;6252865;28;20175;-59
2022/01/27 06:56:55;;;;;;;41.43;22.87;;;-3275.20;82.90;;;;;;6208796;28;20192;-59
2022/01/27 06:59:56;;;;;;;42.40;22.17;;;-3275.20;82.80;;;;;;6259339;28;20187;-60
2022/01/27 07:02:57;;;;;;;38.83;22.67;;;-3275.30;83.10;;;;;;6235468;28;20309;-60
2022/01/27 07:05:58;;;;;;;38.63;22.83;;;-3275.30;82.80;;;;;;6233797;28;20197;-60
2022/01/27 07:08:59;;;;;;;41.83;22.33;;;-3275.30;82.40;;;;;;6227992;28;20199;-60
2022/01/27 07:12:00;;;;;;;40.77;23.37;;;-3275.30;82.30;;;;;;6249862;28;20222;-59
2022/01/27 07:15:00;;;;;;;46.77;23.07;;;-3275.30;82.20;;;;;;6216258;28;20188;-59
2022/01/27 07:18:01;;;;;;;42.60;22.90;;;-3275.30;82.30;;;;;;6253793;28;20194;-59
2022/01/27 07:21:04;;;;;;;39.33;20.87;;;-3275.40;82.10;;;;;;6248188;28;20294;-60
2022/01/27 07:24:05;;;;;;;41.93;20.60;;;-3275.30;82.00;;;;;;6219185;28;20224;-59
2022/01/27 07:27:06;;;;;;;37.23;21.90;;;-3275.20;82.10;;;;;;6248597;28;20197;-59
2022/01/27 07:30:08;;;;;;;40.10;22.93;;;-3275.20;82.60;;;;;;6248082;28;20199;-59
2022/01/27 07:33:08;;;;;;;45.60;25.00;;;-3275.20;82.30;;;;;;6261060;28;20188;-59
2022/01/27 07:36:09;;;;;;;39.00;22.10;;;-3275.40;82.20;;;;;;6245446;28;20202;-58
2022/01/27 07:39:14;;;;;;;34.90;20.97;;;-3275.40;82.10;;;;;;6235286;28;20254;-59
2022/01/27 07:42:15;;;;;;;37.07;21.73;;;-3275.50;82.00;;;;;;6235687;28;20220;-59
2022/01/27 07:45:16;;;;;;;44.87;22.70;;;-3275.60;82.00;;;;;;6240235;28;20246;-58
2022/01/27 07:48:17;;;;;;;38.63;21.17;;;-3275.70;82.00;;;;;;6273785;28;20280;-59
2022/01/27 07:51:18;;;;;;;38.27;23.50;;;-3275.70;81.90;;;;;;6240857;28;20191;-59
2022/01/27 07:54:19;;;;;;;40.03;23.27;;;-3275.90;81.70;;;;;;6241160;28;20197;-57
2022/01/27 07:57:19;;;;;;;42.80;25.67;;;-3276.00;81.80;;;;;;6257188;28;20249;-59
2022/01/27 08:00:20;;;;;;;39.73;23.27;;;-3276.20;81.60;;;;;;6248939;28;20193;-59
2022/01/27 08:03:21;;;;;;;40.60;23.37;;;-3276.30;81.60;;;;;;6232686;28;20228;-59
2022/01/27 08:06:22;;;;;;;40.87;21.17;;;-3276.30;81.20;;;;;;6255282;28;20288;-58
2022/01/27 08:09:23;;;;;;;43.27;23.23;;;-3276.50;81.10;;;;;;6258177;28;20229;-58
2022/01/27 08:12:24;;;;;;;40.83;22.83;;;-3276.60;80.70;;;;;;6273698;28;20233;-59
2022/01/27 08:15:25;;;;;;;34.70;21.60;;;-3276.70;80.50;;;;;;6250335;28;20208;-59
2022/01/27 08:18:26;;;;;;;34.63;21.30;;;-3276.70;80.40;;;;;;6274281;28;20185;-59
2022/01/27 08:21:26;;;;;;;37.70;22.33;;;-3276.70;80.30;;;;;;6248900;28;20334;-59
2022/01/27 08:24:27;;;;;;;40.63;23.53;;;0.00;80.50;;;;;;6248332;28;20213;-58
2022/01/27 08:27:30;;;;;;;39.77;22.33;;;0.00;80.30;;;;;;6234690;28;20264;-59
2022/01/27 08:30:39;;;;;;;35.17;20.07;;;0.10;80.10;;;;;;6257323;28;20490;-59
2022/01/27 08:33:40;;;;;;;35.67;21.40;;;0.10;80.10;;;;;;6258472;28;20187;-59
2022/01/27 08:36:42;;;;;;;37.27;21.43;;;0.20;80.00;;;;;;6216961;28;20198;-59
2022/01/27 08:39:43;;;;;;;35.83;19.63;;;0.30;79.50;;;;;;6270604;28;20185;-59
2022/01/27 08:42:45;;;;;;;39.23;22.47;;;0.30;79.40;;;;;;6257088;28;20256;-59
2022/01/27 08:45:46;;;;;;;37.27;20.90;;;0.20;79.30;;;;;;6232080;28;20189;-59
2022/01/27 08:48:47;;;;;;;37.30;21.83;;;0.30;79.60;;;;;;6247538;28;20207;-59
2022/01/27 08:51:48;;;;;;;38.03;21.00;;;0.30;79.50;;;;;;6221332;28;20286;-59
2022/01/27 08:54:48;;;;;;;43.37;23.00;;;0.30;79.60;;;;;;6240236;28;20197;-59
2022/01/27 08:57:50;;;;;;;32.03;20.30;;;0.50;79.30;;;;;;6239230;28;20193;-59
2022/01/27 09:00:51;;;;;;;34.63;21.47;;;0.40;79.20;;;;;;6256162;28;20331;-59
2022/01/27 09:03:52;;;;;;;34.73;20.43;;;0.50;79.20;;;;;;6255143;28;20378;-59
2022/01/27 09:06:53;;;;;;;33.23;21.50;;;0.50;79.10;;;;;;6240677;28;20228;-59
2022/01/27 09:09:53;;;;;;;35.37;20.80;;;0.60;79.00;;;;;;6255815;28;20178;-59
2022/01/27 09:12:54;;;;;;;35.17;20.53;;;0.60;78.90;;;;;;6222865;28;20226;-59
2022/01/27 09:15:58;;;;;;;39.70;20.80;;;0.80;78.80;;;;;;6248000;28;20253;-59
2022/01/27 09:19:01;;;;;;;31.33;19.23;;;0.80;78.60;;;;;;6265184;28;20183;-59
2022/01/27 09:22:07;;;;;;;37.87;22.23;;;0.90;78.40;;;;;;6224080;28;20198;-60
2022/01/27 09:25:19;;;;;;;31.43;19.90;;;1.10;78.10;;;;;;6199464;28;20217;-59
2022/01/27 09:28:20;;;;;;;33.60;18.50;;;1.20;77.70;;;;;;6238267;28;20324;-59
2022/01/27 09:31:20;;;;;;;29.20;17.20;;;1.20;77.50;;;;;;6231111;28;20187;-59
2022/01/27 09:34:21;;;;;;;30.87;18.43;;;1.30;77.20;;;;;;6247197;28;20194;-58
2022/01/27 09:37:22;;;;;;;26.80;16.53;;;1.40;76.90;;;;;;6269661;28;20213;-59
2022/01/27 09:40:24;;;;;;;27.43;18.17;;;1.40;76.40;;;;;;6246656;28;20271;-59
2022/01/27 09:43:25;;;;;;;29.03;17.13;;;1.60;75.80;;;;;;6230270;28;20246;-58
2022/01/27 09:46:27;;;;;;;24.83;15.43;;;1.80;75.10;;;;;;6254529;28;20256;-59
2022/01/27 09:49:39;;;;;;;28.03;16.97;;;1.70;75.10;;;;;;6271562;28;20331;-59
2022/01/27 09:52:40;;;;;;;24.97;16.47;;;1.90;74.60;;;;;;6237846;28;20198;-58
2022/01/27 09:55:41;;;;;;;28.63;17.30;;;2.00;74.30;;;;;;6253659;28;20192;-59
2022/01/27 09:58:42;;;;;;;30.43;18.17;;;2.10;74.00;;;;;;6238907;28;20265;-59
2022/01/27 10:02:05;;;;;;;25.10;16.10;;;2.30;73.40;;;;;;6228735;28;20225;-59
2022/01/27 10:05:07;;;;;;;33.13;19.47;;;2.30;73.40;;;;;;6213524;28;20230;-59
2022/01/27 10:08:15;;;;;;;31.57;18.80;;;2.40;73.60;;;;;;6236227;28;20197;-59
2022/01/27 10:11:18;;;;;;;29.67;18.10;;;2.40;72.60;;;;;;6237825;28;20191;-59
2022/01/27 10:14:34;;;;;;;39.27;19.37;;;2.80;72.20;;;;;;6238168;28;20224;-59
2022/01/27 10:17:38;;;;;;;30.77;18.37;;;2.90;71.40;;;;;;6238236;28;20230;-59
2022/01/27 10:20:43;;;;;;;30.63;18.93;;;3.30;70.70;;;;;;6272316;28;20197;-58
2022/01/27 10:23:44;;;;;;;30.90;18.50;;;3.20;70.90;;;;;;6270399;28;20205;-59
2022/01/27 10:26:53;;;;;;;35.63;19.63;;;3.40;70.40;;;;;;6246098;28;20293;-59
2022/01/27 10:33:00;;;;;;;33.00;19.30;;;3.90;67.60;;;;;;6263684;28;20192;-59
2022/01/27 10:36:27;;;;;;;28.93;17.73;;;3.80;69.00;;;;;;6244701;28;20194;-59
2022/01/27 10:39:28;;;;;;;34.43;20.27;;;3.90;68.50;;;;;;6233642;28;20210;-59
2022/01/27 10:42:28;;;;;;;34.47;19.97;;;4.20;66.70;;;;;;6237595;28;20346;-59
2022/01/27 10:45:29;;;;;;;33.67;20.17;;;4.10;67.50;;;;;;6229256;28;20192;-59
2022/01/27 10:48:33;;;;;;;31.03;18.77;;;4.10;67.20;;;;;;6246324;28;20214;-59
2022/01/27 10:51:49;;;;;;;32.33;20.13;;;4.10;67.70;;;;;;6248142;28;20224;-59
2022/01/27 10:54:58;;;;;;;41.57;21.57;;;4.40;66.40;;;;;;6228112;28;20267;-59
2022/01/27 10:57:58;;;;;;;35.43;21.83;;;4.30;65.60;;;;;;6236849;28;20198;-58
2022/01/27 11:01:00;;;;;;;38.10;22.23;;;4.60;66.00;;;;;;6213777;28;20206;-59
2022/01/27 11:04:04;;;;;;;31.93;21.27;;;4.80;64.40;;;;;;6234959;28;20262;-59
2022/01/27 11:07:09;;;;;;;36.77;22.60;;;4.80;64.90;;;;;;6271072;28;20190;-59
2022/01/27 11:10:10;;;;;;;37.37;22.00;;;4.80;64.30;;;;;;6237107;28;20198;-59
2022/01/27 11:13:11;;;;;;;37.20;22.63;;;4.80;64.20;;;;;;6227941;28;20208;-60
2022/01/27 11:16:16;;;;;;;35.87;22.63;;;4.80;65.10;;;;;;6230031;28;20200;-59
2022/01/27 11:20:19;;;;;;;39.73;23.13;;;4.80;65.50;;;;;;6276397;28;20225;-59
2022/01/27 11:22:48;;;;;;;34.23;21.70;;;4.90;64.40;;;;;;6262841;28;20237;-59
2022/01/27 11:25:52;;;;;;;38.43;22.80;;;5.20;63.60;;;;;;6243014;28;20288;-59
2022/01/27 11:28:56;;;;;;;34.90;22.87;;;5.30;63.20;;;;;;6242367;28;20269;-59
2022/01/27 11:32:00;;;;;;;39.40;23.57;;;5.60;62.20;;;;;;6246438;28;20243;-59
2022/01/27 11:35:01;;;;;;;40.40;24.03;;;5.30;63.20;;;;;;6254762;28;20190;-59
2022/01/27 11:38:04;;;;;;;47.60;24.30;;;5.30;63.00;;;;;;6259050;28;20193;-59
2022/01/27 11:41:05;;;;;;;37.00;23.03;;;5.60;62.10;;;;;;6245077;28;20199;-59
2022/01/27 11:44:23;;;;;;;34.53;22.17;;;5.60;62.20;;;;;;6232986;28;20454;-59
2022/01/27 11:47:23;;;;;;;40.90;23.87;;;5.40;62.90;;;;;;6235672;28;20206;-59
2022/01/27 11:50:37;;;;;;;43.67;23.37;;;5.40;63.40;;;;;;6233789;28;20210;-59
2022/01/27 11:53:45;;;;;;;34.30;22.47;;;5.70;61.80;;;;;;6245059;28;20198;-59
2022/01/27 11:56:48;;;;;;;38.60;23.87;;;5.80;61.40;;;;;;6232121;28;20195;-59
2022/01/27 11:59:49;;;;;;;37.80;23.30;;;5.80;61.90;;;;;;6219317;28;20220;-59
2022/01/27 12:02:56;;;;;;;38.63;23.93;;;5.90;61.60;;;;;;6249800;28;20320;-60
2022/01/27 12:06:16;;;;;;;41.40;24.20;;;5.90;60.80;;;;;;6295903;28;20495;-60
2022/01/27 12:09:19;;;;;;;36.00;22.47;;;5.80;61.80;;;;;;6256007;28;20273;-60
2022/01/27 12:12:31;;;;;;;37.43;23.50;;;5.80;61.60;;;;;;6265030;28;20277;-60
2022/01/27 12:15:32;;;;;;;40.03;23.50;;;5.50;62.80;;;;;;6241600;28;20429;-59
2022/01/27 12:18:36;;;;;;;33.47;21.53;;;5.50;63.30;;;;;;6258169;28;20201;-60
2022/01/27 12:21:45;;;;;;;39.90;22.70;;;5.70;62.30;;;;;;6236833;28;20193;-60
2022/01/27 12:24:58;;;;;;;34.93;21.57;;;5.80;62.10;;;;;;6256641;28;20263;-60
2022/01/27 12:27:59;;;;;;;41.83;24.47;;;5.80;61.60;;;;;;6248363;28;20191;-59
2022/01/27 12:31:00;;;;;;;44.27;24.67;;;5.80;62.60;;;;;;6232669;28;20190;-60
2022/01/27 12:34:01;;;;;;;41.00;23.93;;;5.80;62.40;;;;;;6264059;28;20194;-60
2022/01/27 12:37:07;;;;;;;45.30;24.47;;;5.80;62.10;;;;;;6224363;28;20193;-60
2022/01/27 12:40:17;;;;;;;38.37;22.83;;;5.80;61.40;;;;;;6274175;28;20665;-60
2022/01/27 12:43:18;;;;;;;36.97;22.57;;;5.80;61.80;;;;;;6265431;28;20242;-60
2022/01/27 12:46:19;;;;;;;44.47;23.33;;;5.80;61.70;;;;;;6239525;28;20185;-60
2022/01/27 12:49:41;;;;;;;41.33;24.80;;;5.80;61.80;;;;;;6231620;28;20201;-59
2022/01/27 12:52:45;;;;;;;40.10;23.93;;;5.90;61.90;;;;;;6283097;28;20198;-60
2022/01/27 12:55:46;;;;;;;46.07;25.43;;;5.90;61.50;;;;;;6237138;28;20225;-60
2022/01/27 12:58:47;;;;;;;41.00;23.87;;;5.80;61.70;;;;;;6226675;28;20196;-60
2022/01/27 13:02:03;;;;;;;43.93;24.43;;;5.60;62.00;;;;;;6248011;28;20272;-62
2022/01/27 13:05:06;;;;;;;35.83;22.27;;;5.70;62.40;;;;;;6253651;28;20269;-61
2022/01/27 13:08:12;;;;;;;38.47;22.67;;;5.50;62.80;;;;;;6256277;28;20195;-60
2022/01/27 13:11:14;;;;;;;40.43;24.20;;;5.50;63.10;;;;;;6224672;28;20222;-60
2022/01/27 13:14:15;;;;;;;40.83;22.87;;;5.30;63.70;;;;;;6238778;28;20189;-60
2022/01/27 13:17:27;;;;;;;40.23;24.13;;;5.30;64.40;;;;;;6214909;28;20208;-60
2022/01/27 13:20:41;;;;;;;37.07;22.97;;;5.30;64.40;;;;;;6243698;28;20198;-60
2022/01/27 13:23:45;;;;;;;40.07;22.97;;;5.30;64.60;;;;;;6237983;28;20283;-60
2022/01/27 13:26:46;;;;;;;35.10;21.37;;;5.20;64.40;;;;;;6238446;28;20208;-60
2022/01/27 13:29:48;;;;;;;38.23;21.73;;;5.10;64.60;;;;;;6238397;28;20205;-60
2022/01/27 13:32:49;;;;;;;39.17;22.50;;;5.20;64.50;;;;;;6255418;28;20221;-59
2022/01/27 13:35:53;;;;;;;38.83;22.50;;;5.10;65.30;;;;;;6219048;28;20198;-59
2022/01/27 13:39:14;;;;;;;42.27;24.70;;;5.00;65.20;;;;;;6231375;28;20200;-59
2022/01/27 13:42:16;;;;;;;44.40;24.53;;;5.10;65.40;;;;;;6231442;28;20195;-60
2022/01/27 13:45:17;;;;;;;35.80;22.73;;;4.80;66.20;;;;;;6232643;28;20231;-60
2022/01/27 13:48:21;;;;;;;41.00;23.77;;;4.80;66.20;;;;;;6234627;28;20522;-60
2022/01/27 13:51:23;;;;;;;45.20;25.67;;;4.80;66.40;;;;;;6231435;28;20190;-59
2022/01/27 13:54:36;;;;;;;31.77;20.27;;;4.90;66.60;;;;;;6218651;28;20227;-59
2022/01/27 13:57:46;;;;;;;39.83;24.27;;;4.80;66.20;;;;;;6263919;28;20247;-60
2022/01/27 14:00:51;;;;;;;36.00;22.03;;;5.00;65.60;;;;;;6238176;28;20208;-59
2022/01/27 14:03:52;;;;;;;42.00;24.33;;;5.00;65.20;;;;;;6238530;28;20671;-59
2022/01/27 14:06:56;;;;;;;48.80;24.70;;;5.00;65.10;;;;;;6222013;28;20205;-60
2022/01/27 14:10:22;;;;;;;40.13;23.43;;;4.90;65.40;;;;;;6248261;28;20186;-60
2022/01/27 14:13:24;;;;;;;38.57;23.27;;;4.90;65.40;;;;;;6224847;28;20205;-59
2022/01/27 14:16:26;;;;;;;37.23;23.30;;;4.90;65.90;;;;;;6230302;28;20201;-60
2022/01/27 14:19:32;;;;;;;34.83;21.83;;;4.70;66.00;;;;;;6239427;28;20266;-51
2022/01/27 14:22:40;;;;;;;39.13;23.30;;;4.60;66.60;;;;;;6249064;28;20217;-52
2022/01/27 14:25:48;;;;;;;36.13;21.20;;;4.80;66.40;;;;;;6250263;28;20296;-59
2022/01/27 14:28:50;;;;;;;36.67;22.90;;;4.50;67.20;;;;;;6245804;28;20191;-59
2022/01/27 14:31:51;;;;;;;38.67;23.23;;;4.50;67.00;;;;;;6271812;28;20208;-59
2022/01/27 14:34:51;;;;;;;41.17;24.27;;;4.70;66.70;;;;;;6235217;28;20197;-59
2022/01/27 14:37:57;;;;;;;38.60;22.40;;;4.50;67.00;;;;;;6217760;28;20202;-60
2022/01/27 14:40:58;;;;;;;33.43;21.77;;;4.20;67.70;;;;;;6229384;28;20210;-59
2022/01/27 14:44:00;;;;;;;40.30;22.37;;;4.20;68.20;;;;;;6255097;28;20252;-59
2022/01/27 14:47:03;;;;;;;33.57;20.13;;;4.10;68.50;;;;;;6254185;28;20193;-59
2022/01/27 14:50:05;;;;;;;42.60;23.57;;;4.20;68.30;;;;;;6239939;28;20244;-60
2022/01/27 14:53:07;;;;;;;37.53;21.83;;;4.10;68.20;;;;;;6241942;28;20236;-59
2022/01/27 14:56:08;;;;;;;39.50;22.80;;;3.90;68.90;;;;;;6240403;28;20201;-60
2022/01/27 14:59:10;;;;;;;38.33;23.53;;;3.90;69.30;;;;;;6232205;28;20202;-60
2022/01/27 15:02:11;;;;;;;36.47;23.07;;;3.90;69.60;;;;;;6261795;28;20192;-59
2022/01/27 15:05:12;;;;;;;35.47;21.73;;;3.60;70.30;;;;;;6249163;28;20200;-59
2022/01/27 15:08:13;;;;;;;32.87;20.33;;;3.70;70.30;;;;;;6272695;28;20198;-59
2022/01/27 15:11:14;;;;;;;36.83;22.33;;;3.60;70.70;;;;;;6248303;28;20217;-60
2022/01/27 15:20:57;;;;;;;42.83;23.63;;;3.40;71.40;;;;;;6281344;28;20194;-59
2022/01/27 15:23:58;;;;;;;39.10;22.37;;;3.40;71.40;;;;;;6249782;28;20296;-59
2022/01/27 15:26:59;;;;;;;45.53;24.67;;;3.30;71.50;;;;;;6250657;28;20204;-60
2022/01/27 15:30:00;;;;;;;41.87;23.87;;;3.30;71.50;;;;;;6260887;28;20217;-59
2022/01/27 15:33:01;;;;;;;37.70;21.50;;;3.20;72.00;;;;;;6238752;28;20297;-59
2022/01/27 15:36:03;;;;;;;39.20;23.00;;;3.10;72.30;;;;;;6232134;28;20194;-60
2022/01/27 15:39:04;;;;;;;34.40;21.70;;;3.00;72.50;;;;;;6235351;28;20214;-59
2022/01/27 15:42:05;;;;;;;36.17;22.03;;;2.90;72.60;;;;;;6261920;28;20261;-60
2022/01/27 15:45:08;;;;;;;43.47;23.70;;;2.90;72.70;;;;;;6225958;28;20218;-59
2022/01/27 15:48:10;;;;;;;38.07;24.00;;;2.80;72.90;;;;;;6261497;28;20201;-60
2022/01/27 15:51:11;;;;;;;47.73;25.50;;;2.80;73.10;;;;;;6236556;28;20201;-59
2022/01/27 15:54:12;;;;;;;48.80;27.60;;;2.70;73.30;;;;;;6239544;28;20193;-59
2022/01/27 15:57:13;;;;;;;51.10;27.23;;;2.70;73.50;;;;;;6239682;28;20213;-60
2022/01/27 16:00:15;;;;;;;47.33;24.37;;;2.60;73.70;;;;;;6240109;28;20209;-59
2022/01/27 16:03:16;;;;;;;37.63;22.00;;;2.50;73.80;;;;;;6257748;28;20243;-59
2022/01/27 16:06:18;;;;;;;38.63;23.37;;;2.30;74.30;;;;;;6257014;28;20204;-59
2022/01/27 16:09:18;;;;;;;43.93;23.53;;;2.30;74.20;;;;;;6239492;28;20190;-59